createdAt,value
2023-11-07T00:01:32.761Z,99859.34
2023-11-07T00:04:09.350Z,99854.38
2023-11-07T00:06:37.071Z,99856.44
2023-11-07T00:09:04.835Z,99862.66
2023-11-07T00:11:32.201Z,99866.38
2023-11-07T00:13:59.797Z,99872.03
2023-11-07T00:16:28.948Z,99870.94
2023-11-07T00:18:57.483Z,99865.03
2023-11-07T00:21:25.411Z,99870.66
2023-11-07T00:23:53.106Z,99875.44
2023-11-07T00:26:21.689Z,99876.34
2023-11-07T00:28:53.209Z,99880.28
2023-11-07T00:31:20.504Z,99872.94
2023-11-07T00:33:48.201Z,99874.63
2023-11-07T00:36:17.516Z,99879.19
2023-11-07T00:38:45.613Z,99881.31
2023-11-07T00:41:14.650Z,99879.69
2023-11-07T00:43:45.663Z,99889.28
2023-11-07T00:46:13.023Z,99881.72
2023-11-07T00:48:40.767Z,99877.13
2023-11-07T00:51:08.959Z,99887.53
2023-11-07T00:53:40.156Z,99886.03
2023-11-07T00:56:10.965Z,99880.84
2023-11-07T00:58:38.711Z,99876.25
2023-11-07T01:01:06.387Z,99878.78
2023-11-07T01:03:35.224Z,99874.22
2023-11-07T01:06:06.092Z,99876.34
2023-11-07T01:08:35.356Z,99877.97
2023-11-07T01:11:02.814Z,99883.22
2023-11-07T01:13:31.339Z,99883.41
2023-11-07T01:16:03.393Z,99884.03
2023-11-07T01:18:31.505Z,99877.97
2023-11-07T01:20:59.646Z,99886.03
2023-11-07T01:23:27.519Z,99882.47
2023-11-07T01:25:55.241Z,99892.47
2023-11-07T01:28:24.116Z,99893.94
2023-11-07T01:30:52.686Z,99890.47
2023-11-07T01:33:20.473Z,99896.88
2023-11-07T01:35:48.072Z,99893.09
2023-11-07T01:38:15.826Z,99898.84
2023-11-07T01:40:42.986Z,99891.50
2023-11-07T01:43:15.040Z,99889.56
2023-11-07T01:45:43.375Z,99888.91
2023-11-07T01:48:19.465Z,99900.47
2023-11-07T01:50:46.760Z,99894.22
2023-11-07T01:53:14.968Z,99890.41
2023-11-07T01:55:43.828Z,99889.75
2023-11-07T01:58:11.877Z,99896.06
2023-11-07T02:00:41.426Z,99890.06
2023-11-07T02:03:09.662Z,99879.53
2023-11-07T02:05:37.147Z,99883.47
2023-11-07T02:08:06.810Z,99886.34
2023-11-07T02:10:34.191Z,99886.44
2023-11-07T02:13:01.850Z,99884.00
2023-11-07T02:15:29.188Z,99883.81
2023-11-07T02:17:57.212Z,99880.06
2023-11-07T02:20:25.518Z,99877.63
2023-11-07T02:23:10.695Z,99873.63
2023-11-07T02:25:40.182Z,99871.41
2023-11-07T02:28:08.577Z,99876.69
2023-11-07T02:30:35.885Z,99883.44
2023-11-07T02:33:06.008Z,99886.91
2023-11-07T02:35:33.902Z,99875.38
2023-11-07T02:38:02.069Z,99882.50
2023-11-07T02:40:30.442Z,99885.16
2023-11-07T02:43:01.057Z,99889.53
2023-11-07T02:45:29.775Z,99894.31
2023-11-07T02:47:57.642Z,99888.63
2023-11-07T02:50:25.107Z,99883.81
2023-11-07T02:52:52.784Z,99873.81
2023-11-07T02:55:20.127Z,99880.34
2023-11-07T02:57:48.758Z,99881.84
2023-11-07T03:00:16.924Z,99880.16
2023-11-07T03:02:44.904Z,99874.41
2023-11-07T03:05:13.882Z,99880.31
2023-11-07T03:07:41.544Z,99881.63
2023-11-07T03:10:10.446Z,99898.13
2023-11-07T03:12:38.057Z,99902.13
2023-11-07T03:15:06.250Z,99885.63
2023-11-07T03:17:35.571Z,99895.56
2023-11-07T03:20:10.167Z,99882.88
2023-11-07T03:22:38.037Z,99889.72
2023-11-07T03:25:05.963Z,99885.38
2023-11-07T03:27:34.568Z,99882.91
2023-11-07T03:30:07.727Z,99885.88
2023-11-07T03:32:36.146Z,99884.88
2023-11-07T03:35:06.165Z,99893.09
2023-11-07T03:37:34.400Z,99883.75
2023-11-07T03:40:05.350Z,99897.34
2023-11-07T03:42:36.543Z,99897.22
2023-11-07T03:45:04.993Z,99896.56
2023-11-07T03:47:34.752Z,99895.53
2023-11-07T03:50:04.242Z,99886.59
2023-11-07T03:52:32.235Z,99891.16
2023-11-07T03:54:59.529Z,99882.44
2023-11-07T03:57:27.354Z,99879.09
2023-11-07T03:59:55.752Z,99887.25
2023-11-07T04:02:23.745Z,99888.13
2023-11-07T04:04:51.271Z,99888.72
2023-11-07T04:07:18.938Z,99892.03
2023-11-07T04:09:46.506Z,99894.72
2023-11-07T04:12:15.216Z,99898.41
2023-11-07T04:14:45.080Z,99908.41
2023-11-07T04:17:13.464Z,99902.66
2023-11-07T04:19:40.846Z,99915.25
2023-11-07T04:22:09.057Z,99907.31
2023-11-07T04:24:38.738Z,99902.97
2023-11-07T04:27:08.704Z,99913.00
2023-11-07T04:29:36.199Z,99905.13
2023-11-07T04:32:04.246Z,99905.59
2023-11-07T04:34:31.556Z,99903.31
2023-11-07T04:37:00.141Z,99904.16
2023-11-07T04:39:28.353Z,99903.72
2023-11-07T04:41:56.234Z,99892.69
2023-11-07T04:44:25.921Z,99903.56
2023-11-07T04:46:54.068Z,99895.63
2023-11-07T04:49:21.685Z,99901.69
2023-11-07T04:51:49.557Z,99898.97
2023-11-07T04:54:16.996Z,99903.16
2023-11-07T04:56:45.598Z,99905.44
2023-11-07T04:59:14.606Z,99913.78
2023-11-07T05:01:42.351Z,99919.81
2023-11-07T05:04:13.952Z,99923.34
2023-11-07T05:06:43.016Z,99928.13
2023-11-07T05:09:13.984Z,99929.59
2023-11-07T05:11:42.573Z,99924.41
2023-11-07T05:14:11.925Z,99930.47
2023-11-07T05:16:45.359Z,99924.59
2023-11-07T05:19:16.255Z,99914.59
2023-11-07T05:21:44.175Z,99913.34
2023-11-07T05:24:14.293Z,99920.00
2023-11-07T05:26:41.944Z,99912.94
2023-11-07T05:33:47.052Z,99925.84
2023-11-07T05:36:17.303Z,99928.34
2023-11-07T05:38:45.769Z,99926.28
2023-11-07T05:41:13.572Z,99927.97
2023-11-07T05:43:47.726Z,99932.94
2023-11-07T05:46:23.601Z,99936.91
2023-11-07T05:48:53.132Z,99936.06
2023-11-07T05:51:28.919Z,99937.72
2023-11-07T05:54:03.333Z,99943.16
2023-11-07T05:56:31.278Z,99948.34
2023-11-07T06:03:34.137Z,99938.56
2023-11-07T06:06:01.835Z,99945.25
2023-11-07T06:08:29.947Z,99947.50
2023-11-07T06:10:58.592Z,99950.44
2023-11-07T06:13:26.813Z,99950.44
2023-11-07T06:15:55.723Z,99958.97
2023-11-07T06:18:23.677Z,99962.53
2023-11-07T06:20:52.594Z,99956.66
2023-11-07T06:23:21.709Z,99966.25
2023-11-07T06:25:52.361Z,99969.16
2023-11-07T06:28:28.376Z,99970.41
2023-11-07T06:30:55.962Z,99978.69
2023-11-07T06:33:25.079Z,99970.78
2023-11-07T06:35:55.424Z,99974.50
2023-11-07T06:38:27.102Z,99985.31
2023-11-07T06:40:54.489Z,99984.94
2023-11-07T06:43:22.372Z,99985.19
2023-11-07T06:45:50.731Z,99990.78
2023-11-07T06:48:18.372Z,99983.50
2023-11-07T06:50:47.627Z,99975.81
2023-11-07T06:53:15.252Z,99988.09
2023-11-07T06:55:42.666Z,99977.47
2023-11-07T06:58:10.776Z,99977.88
2023-11-07T07:00:40.217Z,99978.13
2023-11-07T07:03:08.167Z,99973.94
2023-11-07T07:05:35.824Z,99969.56
2023-11-07T07:08:04.905Z,99968.31
2023-11-07T07:10:33.454Z,99966.00
2023-11-07T07:13:01.339Z,99977.66
2023-11-07T07:15:28.879Z,99976.00
2023-11-07T07:17:56.542Z,99978.25
2023-11-07T07:20:24.335Z,99971.97
2023-11-07T07:22:53.462Z,99979.03
2023-11-07T07:25:22.495Z,99978.16
2023-11-07T07:32:22.408Z,99973.13
2023-11-07T07:34:52.826Z,99985.41
2023-11-07T07:37:22.204Z,99968.44
2023-11-07T07:39:49.520Z,99973.16
2023-11-07T07:42:18.825Z,99963.25
2023-11-07T07:44:46.816Z,99967.78
2023-11-07T07:47:16.954Z,99973.38
2023-11-07T07:49:46.017Z,99968.94
2023-11-07T07:52:13.641Z,99967.56
2023-11-07T07:55:00.634Z,99968.06
2023-11-07T07:57:29.540Z,99963.41
2023-11-07T08:00:00.959Z,99971.94
2023-11-07T08:02:28.791Z,99973.59
2023-11-07T08:04:58.030Z,99966.22
2023-11-07T08:07:25.950Z,99970.16
2023-11-07T08:09:53.290Z,99970.50
2023-11-07T08:12:22.476Z,99973.16
2023-11-07T08:14:49.743Z,99963.22
2023-11-07T08:17:18.825Z,99972.38
2023-11-07T08:19:47.602Z,99975.50
2023-11-07T08:22:15.800Z,99971.38
2023-11-07T08:24:43.830Z,99965.47
2023-11-07T08:31:45.467Z,99961.44
2023-11-07T08:34:13.177Z,99970.06
2023-11-07T08:36:48.403Z,99964.78
2023-11-07T08:39:29.001Z,99969.84
2023-11-07T08:41:57.537Z,99967.59
2023-11-07T08:44:24.883Z,99984.06
2023-11-07T08:46:52.431Z,99973.50
2023-11-07T08:49:50.237Z,99974.31
2023-11-07T08:52:19.725Z,99979.75
2023-11-07T08:54:47.084Z,99974.13
2023-11-07T08:57:14.702Z,99967.97
2023-11-07T08:59:46.051Z,99964.25
2023-11-07T09:02:15.350Z,99959.81
2023-11-07T09:04:44.841Z,99969.84
2023-11-07T09:07:13.821Z,99964.66
2023-11-07T09:09:41.187Z,99961.59
2023-11-07T09:12:11.680Z,99966.44
2023-11-07T09:14:38.983Z,99970.38
2023-11-07T09:17:06.682Z,99993.34
2023-11-07T09:19:34.143Z,99987.69
2023-11-07T09:22:02.588Z,99986.94
2023-11-07T09:24:30.256Z,99984.19
2023-11-07T09:26:57.867Z,99973.16
2023-11-07T09:29:26.179Z,99963.38
2023-11-07T09:31:54.946Z,99973.91
2023-11-07T09:34:22.513Z,99966.00
2023-11-07T09:36:50.229Z,99970.19
2023-11-07T09:39:17.599Z,99970.97
2023-11-07T09:41:46.648Z,99971.03
2023-11-07T09:44:15.161Z,99968.38
2023-11-07T09:46:50.842Z,99953.16
2023-11-07T09:49:22.049Z,99947.84
2023-11-07T09:51:53.823Z,99951.91
2023-11-07T09:54:26.542Z,99962.34
2023-11-07T09:56:57.188Z,99970.53
2023-11-07T09:59:54.125Z,99971.13
2023-11-07T10:02:23.444Z,99956.28
2023-11-07T10:04:54.114Z,99960.09
2023-11-07T10:07:23.277Z,99946.25
2023-11-07T10:09:56.195Z,99936.84
2023-11-07T10:12:24.169Z,99936.88
2023-11-07T10:14:52.694Z,99938.97
2023-11-07T10:17:24.384Z,99926.09
2023-11-07T10:20:16.406Z,99927.31
2023-11-07T10:22:48.396Z,99935.94
2023-11-07T10:25:51.541Z,99925.19
2023-11-07T10:28:23.724Z,99921.13
2023-11-07T10:30:52.017Z,99906.88
2023-11-07T10:33:30.477Z,99907.13
2023-11-07T10:36:01.765Z,99894.22
2023-11-07T10:38:31.038Z,99911.22
2023-11-07T10:41:00.189Z,99898.03
2023-11-07T10:43:39.537Z,99895.91
2023-11-07T10:46:12.503Z,99894.06
2023-11-07T12:28:12.592Z,99810.34
2023-11-07T14:24:27.991Z,99718.16
2023-11-07T14:27:07.222Z,99709.81
2023-11-07T14:29:55.144Z,99699.28
2023-11-07T14:32:25.388Z,99687.38
2023-11-07T14:34:54.011Z,99685.34
2023-11-07T14:37:21.711Z,99691.81
2023-11-07T14:39:50.333Z,99691.50
2023-11-07T14:42:18.305Z,99688.91
2023-11-07T14:44:47.003Z,99693.78
2023-11-07T14:47:14.776Z,99691.50
2023-11-07T14:49:44.504Z,99684.31
2023-11-07T14:52:17.681Z,99688.31
2023-11-07T14:54:54.500Z,99693.69
2023-11-07T15:07:07.967Z,99688.28
2023-11-07T15:09:38.903Z,99700.13
2023-11-07T15:12:11.607Z,99690.94
2023-11-07T15:24:28.070Z,99679.41
2023-11-07T15:26:55.639Z,99675.63
2023-11-07T15:29:23.626Z,99677.75
2023-11-07T15:31:51.601Z,99680.25
2023-11-07T15:34:21.114Z,99676.03
2023-11-07T15:36:48.595Z,99676.78
2023-11-07T15:39:19.086Z,99670.16
2023-11-07T15:41:47.378Z,99676.59
2023-11-07T15:44:16.897Z,99682.03
2023-11-07T15:46:45.099Z,99689.97
2023-11-07T15:49:12.978Z,99684.16
2023-11-07T15:51:40.536Z,99688.22
2023-11-07T15:54:08.280Z,99684.66
2023-11-07T15:56:35.687Z,99686.16
2023-11-07T15:59:05.727Z,99693.38
2023-11-07T16:01:33.956Z,99686.06
2023-11-07T16:04:01.810Z,99686.81
2023-11-07T16:06:29.838Z,99683.50
2023-11-07T16:08:58.190Z,99673.63
2023-11-07T16:11:25.524Z,99673.03
2023-11-07T16:13:54.323Z,99670.81
2023-11-07T16:16:23.780Z,99675.44
2023-11-07T16:18:56.101Z,99673.78
2023-11-07T16:21:28.341Z,99667.50
2023-11-07T16:24:00.425Z,99665.84
2023-11-07T16:26:42.939Z,99663.38
2023-11-07T16:29:12.131Z,99669.31
2023-11-07T16:32:07.369Z,99669.16
2023-11-07T16:34:38.481Z,99668.31
2023-11-07T16:37:08.166Z,99657.16
2023-11-07T16:39:39.662Z,99656.75
2023-11-07T16:42:11.972Z,99646.31
2023-11-07T16:44:41.338Z,99657.50
2023-11-07T16:47:13.609Z,99656.00
2023-11-07T16:49:44.300Z,99652.09
2023-11-07T16:52:16.583Z,99654.25
2023-11-07T16:54:45.323Z,99652.00
2023-11-07T16:57:20.685Z,99669.25
2023-11-07T17:00:12.135Z,99676.56
2023-11-07T17:03:09.802Z,99661.38
2023-11-07T17:40:11.156Z,99641.06
2023-11-07T17:42:41.089Z,99637.00
2023-11-07T17:45:12.501Z,99636.66
2023-11-07T18:03:30.431Z,99634.06
2023-11-07T18:11:06.610Z,99623.75
2023-11-07T18:22:34.100Z,99597.31
2023-11-07T18:25:03.933Z,99591.28
2023-11-07T18:27:33.473Z,99581.69
2023-11-07T18:30:09.484Z,99570.03
2023-11-07T18:33:37.690Z,99572.59
2023-11-07T18:37:20.143Z,99577.22
2023-11-07T18:39:48.606Z,99568.88
2023-11-07T18:42:16.581Z,99557.38
2023-11-07T18:44:47.347Z,99558.25
2023-11-07T18:47:15.020Z,99547.25
2023-11-07T18:49:44.039Z,99528.41
2023-11-07T18:52:11.858Z,99525.84
2023-11-07T18:54:42.648Z,99533.19
2023-11-07T18:57:14.319Z,99530.69
2023-11-07T18:59:42.650Z,99531.78
2023-11-07T19:02:11.487Z,99550.84
2023-11-07T19:04:40.884Z,99560.34
2023-11-07T19:07:09.236Z,99552.97
2023-11-07T19:09:37.464Z,99560.44
2023-11-07T19:12:05.978Z,99556.75
2023-11-07T19:14:39.869Z,99534.00
2023-11-07T19:17:13.192Z,99536.13
2023-11-07T19:19:42.794Z,99533.66
2023-11-07T19:22:10.689Z,99531.47
2023-11-07T19:24:39.620Z,99534.88
2023-11-07T19:27:12.036Z,99538.06
2023-11-07T19:29:40.445Z,99534.88
2023-11-07T19:32:08.318Z,99551.81
2023-11-07T19:34:36.297Z,99547.66
2023-11-07T19:37:03.942Z,99512.34
2023-11-07T19:39:32.659Z,99511.03
2023-11-07T19:42:04.023Z,99498.63
2023-11-07T19:44:34.677Z,99505.41
2023-11-07T19:47:02.937Z,99503.28
2023-11-07T19:49:30.634Z,99509.69
2023-11-07T19:51:59.551Z,99502.72
2023-11-07T19:54:35.845Z,99497.22
2023-11-07T19:57:04.154Z,99493.22
2023-11-07T19:59:35.396Z,99496.44
2023-11-07T20:02:06.059Z,99502.88
2023-11-07T20:04:36.304Z,99513.88
2023-11-07T20:07:07.106Z,99522.44
2023-11-07T20:09:38.388Z,99521.28
2023-11-07T20:12:11.313Z,99524.41
2023-11-07T20:14:39.775Z,99518.69
2023-11-07T20:17:08.924Z,99517.38
2023-11-07T20:19:38.498Z,99516.16
2023-11-07T20:22:06.601Z,99520.66
2023-11-07T20:24:37.680Z,99531.00
2023-11-07T20:27:05.525Z,99535.28
2023-11-07T20:29:36.232Z,99528.75
2023-11-07T20:32:07.084Z,99521.06
2023-11-07T20:34:44.647Z,99521.31
2023-11-07T20:37:14.670Z,99521.78
2023-11-07T20:39:44.877Z,99522.75
2023-11-07T20:42:13.778Z,99529.22
2023-11-07T20:44:44.567Z,99520.38
2023-11-07T20:47:17.517Z,99520.53
2023-11-07T20:49:49.899Z,99514.03
2023-11-07T20:52:25.184Z,99503.47
2023-11-07T20:54:57.064Z,99500.59
2023-11-07T20:57:25.080Z,99505.25
2023-11-07T20:59:55.189Z,99505.06
2023-11-07T21:02:25.492Z,99498.75
2023-11-07T21:04:58.040Z,99490.13
2023-11-07T21:07:25.509Z,99487.16
2023-11-07T21:09:55.132Z,99496.38
2023-11-07T21:12:22.613Z,99509.53
2023-11-07T21:14:52.530Z,99516.66
2023-11-07T21:17:21.200Z,99513.81
2023-11-07T21:19:50.479Z,99531.91
2023-11-07T21:22:19.160Z,99553.78
2023-11-07T21:24:48.936Z,99571.31
2023-11-07T21:27:18.341Z,99570.22
2023-11-07T21:29:46.980Z,99575.56
2023-11-07T21:32:16.385Z,99587.97
2023-11-07T21:34:46.136Z,99603.00
2023-11-07T21:37:22.246Z,99615.72
2023-11-07T21:39:51.421Z,99595.63
2023-11-07T21:42:23.776Z,99576.13
2023-11-07T21:44:52.110Z,99581.19
2023-11-07T21:47:23.376Z,99596.31
2023-11-07T21:49:51.279Z,99630.06
2023-11-07T21:52:20.645Z,99617.97
2023-11-07T21:54:48.568Z,99592.38
2023-11-07T21:57:16.239Z,99609.38
2023-11-07T21:59:44.012Z,99621.00
2023-11-07T22:02:13.034Z,99626.00
2023-11-07T22:04:41.180Z,99623.88
2023-11-07T22:07:09.988Z,99621.31
2023-11-07T22:09:39.348Z,99629.59
2023-11-07T22:12:08.329Z,99638.81
2023-11-07T22:14:38.143Z,99621.91
2023-11-07T22:17:07.980Z,99612.44
2023-11-07T22:19:37.209Z,99598.84
2023-11-07T22:22:07.502Z,99589.69
2023-11-07T22:24:35.689Z,99582.75
2023-11-07T22:27:05.961Z,99576.72
2023-11-07T22:29:34.094Z,99575.38
2023-11-07T22:32:01.459Z,99585.84
2023-11-07T22:34:30.274Z,99579.09
2023-11-07T22:36:57.591Z,99572.03
2023-11-07T22:39:25.140Z,99555.22
2023-11-07T22:41:53.230Z,99550.97
2023-11-07T22:44:28.682Z,99554.75
2023-11-07T22:46:55.931Z,99554.75
2023-11-07T22:49:26.609Z,99566.09
2023-11-07T22:51:53.953Z,99557.94
2023-11-07T22:54:23.199Z,99560.56
2023-11-07T22:56:51.751Z,99563.19
2023-11-07T22:59:22.634Z,99565.81
2023-11-07T23:01:51.004Z,99564.81
2023-11-07T23:04:18.935Z,99560.00
2023-11-07T23:06:46.420Z,99553.00
2023-11-07T23:09:14.123Z,99560.66
2023-11-07T23:11:48.668Z,99551.31
2023-11-07T23:14:18.467Z,99559.94
2023-11-07T23:16:45.712Z,99560.63
2023-11-07T23:19:13.540Z,99560.25
2023-11-07T23:21:41.030Z,99565.75
2023-11-07T23:24:09.644Z,99574.59
2023-11-07T23:26:41.789Z,99575.19
2023-11-07T23:29:13.947Z,99589.69
2023-11-07T23:31:41.981Z,99585.88
2023-11-07T23:34:18.575Z,99590.97
2023-11-07T23:36:48.811Z,99584.69
2023-11-07T23:39:17.412Z,99585.97
2023-11-07T23:41:45.199Z,99586.81
2023-11-07T23:44:14.833Z,99589.75
2023-11-07T23:46:46.326Z,99584.97
2023-11-07T23:49:14.270Z,99585.59
2023-11-07T23:51:43.695Z,99589.38
2023-11-07T23:54:11.322Z,99594.56
2023-11-07T23:56:39.402Z,99595.84
2023-11-07T23:59:07.108Z,99603.53
